Time;durP1;ratioP1;P1;durP2;ratioP2;P2;SDS_P1;SDS_P2;PMS_P1;PMS_P2;Temp;Humidity;BMP_temperature;BMP_pressure;BME280_temperature;BME280_humidity;BME280_pressure;Samples;Min_cycle;Max_cycle;Signal;HPM_P1;HPM_P2
2023/07/11 00:01:01;;;;;;;;;;;;;;;;;;5069388;28;20581;-64
2023/07/11 00:03:29;;;;;;;;;;;;;;;;;;5050021;28;20297;-64
2023/07/11 00:05:54;;;;;;;;;;;;;;;;;;5050162;28;19920;-64
2023/07/11 00:08:19;;;;;;;;;;;;;;;;;;5070336;28;19927;-65
2023/07/11 00:10:44;;;;;;;;;;;;;;;;;;5048953;28;19916;-66
2023/07/11 00:13:12;;;;;;;;;;;;;;;;;;5034632;28;22218;-64
2023/07/11 00:15:38;;;;;;;;;;;;;;;;;;5054402;28;20003;-65
2023/07/11 00:18:03;;;;;;;;;;;;;;;;;;5073688;28;20085;-63
2023/07/11 00:20:31;;;;;;;;;;;;;;;;;;5037223;28;19919;-64
2023/07/11 00:22:59;;;;;;;;;;;;;;;;;;5073889;28;20386;-65
2023/07/11 00:25:24;;;;;;;;;;;;;;;;;;5053818;28;19959;-64
2023/07/11 00:27:49;;;;;;;;;;;;;;;;;;5053532;28;19926;-65
2023/07/11 00:30:17;;;;;;;;;;;;;;;;;;5053502;28;20011;-63
2023/07/11 00:32:43;;;;;;;;;;;;;;;;;;5073391;28;19920;-65
2023/07/11 00:35:08;;;;;;;;;;;;;;;;;;5049737;28;19920;-65
2023/07/11 00:37:33;;;;;;;;;;;;;;;;;;5073818;28;19967;-63
2023/07/11 00:39:58;;;;;;;;;;;;;;;;;;5050013;28;19924;-65
2023/07/11 00:42:27;;;;;;;;;;;;;;;;;;5070131;28;19931;-64
2023/07/11 00:44:52;;;;;;;;;;;;;;;;;;5053472;28;19917;-65
2023/07/11 00:47:17;;;;;;;;;;;;;;;;;;5071068;28;19920;-64
2023/07/11 00:49:42;;;;;;;;;;;;;;;;;;5081054;28;19928;-63
2023/07/11 00:52:13;;;;;;;;;;;;;;;;;;5095597;27;20741;-64
2023/07/11 00:54:39;;;;;;;;;;;;;;;;;;5073773;28;19950;-64
2023/07/11 00:57:09;;;;;;;;;;;;;;;;;;5074499;28;20423;-65
2023/07/11 00:59:34;;;;;;;;;;;;;;;;;;5094500;28;20362;-65
2023/07/11 01:02:00;;;;;;;;;;;;;;;;;;5072534;28;20023;-65
2023/07/11 01:04:28;;;;;;;;;;;;;;;;;;5057669;28;19926;-64
2023/07/11 01:06:53;;;;;;;;;;;;;;;;;;5073153;28;20582;-64
2023/07/11 01:09:21;;;;;;;;;;;;;;;;;;5073932;28;19926;-64
2023/07/11 01:11:46;;;;;;;;;;;;;;;;;;5073136;28;20271;-65
2023/07/11 01:14:11;;;;;;;;;;;;;;;;;;5067577;28;21814;-64
2023/07/11 01:16:39;;;;;;;;;;;;;;;;;;5068643;28;19962;-64
2023/07/11 01:19:05;;;;;;;;;;;;;;;;;;5071290;28;19959;-64
2023/07/11 01:21:36;;;;;;;;;;;;;;;;;;5068248;28;20289;-64
2023/07/11 01:24:11;;;;;;;;;;;;;;;;;;5073863;28;19934;-64
2023/07/11 01:26:36;;;;;;;;;;;;;;;;;;5093320;28;19982;-65
2023/07/11 01:29:01;;;;;;;;;;;;;;;;;;5093033;28;20485;-65
2023/07/11 01:31:27;;;;;;;;;;;;;;;;;;5071978;28;20487;-64
2023/07/11 01:33:52;;;;;;;;;;;;;;;;;;5070781;28;21288;-65
2023/07/11 01:36:17;;;;;;;;;;;;;;;;;;5093110;28;19916;-64
2023/07/11 01:38:42;;;;;;;;;;;;;;;;;;5090195;28;19926;-64
2023/07/11 01:41:08;;;;;;;;;;;;;;;;;;5088198;28;19916;-66
2023/07/11 01:43:33;;;;;;;;;;;;;;;;;;5054571;28;19916;-65
2023/07/11 01:46:01;;;;;;;;;;;;;;;;;;5073259;28;19920;-65
2023/07/11 01:48:26;;;;;;;;;;;;;;;;;;5069493;28;20468;-64
2023/07/11 01:50:51;;;;;;;;;;;;;;;;;;5069711;28;20022;-64
2023/07/11 01:53:17;;;;;;;;;;;;;;;;;;5071994;28;19920;-63
2023/07/11 01:55:42;;;;;;;;;;;;;;;;;;5074606;28;19915;-64
2023/07/11 01:58:07;;;;;;;;;;;;;;;;;;5071228;28;19951;-65
2023/07/11 02:00:36;;;;;;;;;;;;;;;;;;5070224;28;19927;-65
2023/07/11 02:03:02;;;;;;;;;;;;;;;;;;5092990;27;20018;-65
2023/07/11 02:05:27;;;;;;;;;;;;;;;;;;5075055;28;20577;-64
2023/07/11 02:07:52;;;;;;;;;;;;;;;;;;5071068;28;19920;-64
2023/07/11 02:10:18;;;;;;;;;;;;;;;;;;5073564;28;19965;-65
2023/07/11 02:12:43;;;;;;;;;;;;;;;;;;5058299;27;20030;-64
2023/07/11 02:15:11;;;;;;;;;;;;;;;;;;5057613;28;19974;-65
2023/07/11 02:17:37;;;;;;;;;;;;;;;;;;5054990;28;20071;-65
2023/07/11 02:20:02;;;;;;;;;;;;;;;;;;5047998;28;19925;-65
2023/07/11 02:22:27;;;;;;;;;;;;;;;;;;5069194;28;19943;-65
2023/07/11 02:24:55;;;;;;;;;;;;;;;;;;5071823;27;19930;-65
2023/07/11 02:27:20;;;;;;;;;;;;;;;;;;5073957;27;19915;-65
2023/07/11 02:29:46;;;;;;;;;;;;;;;;;;5089107;27;20357;-64
2023/07/11 02:32:13;;;;;;;;;;;;;;;;;;5092138;28;19920;-67
2023/07/11 02:34:44;;;;;;;;;;;;;;;;;;5076817;28;19926;-66
2023/07/11 02:37:15;;;;;;;;;;;;;;;;;;5091495;28;21893;-66
2023/07/11 02:39:43;;;;;;;;;;;;;;;;;;5064238;28;19919;-65
2023/07/11 02:42:10;;;;;;;;;;;;;;;;;;5090948;28;20035;-65
2023/07/11 02:44:38;;;;;;;;;;;;;;;;;;5090392;28;19923;-64
2023/07/11 02:47:06;;;;;;;;;;;;;;;;;;5072101;28;19920;-65
2023/07/11 02:49:31;;;;;;;;;;;;;;;;;;5089935;28;20504;-65
2023/07/11 02:51:59;;;;;;;;;;;;;;;;;;5070794;28;19928;-65
2023/07/11 02:54:25;;;;;;;;;;;;;;;;;;5071993;28;19920;-65
2023/07/11 02:56:50;;;;;;;;;;;;;;;;;;5088944;28;19965;-64
2023/07/11 02:59:22;;;;;;;;;;;;;;;;;;5090282;28;20039;-65
2023/07/11 03:01:50;;;;;;;;;;;;;;;;;;5071617;28;19923;-65
2023/07/11 03:04:21;;;;;;;;;;;;;;;;;;5068313;28;19923;-65
2023/07/11 03:06:46;;;;;;;;;;;;;;;;;;5089884;28;19922;-64
2023/07/11 03:09:14;;;;;;;;;;;;;;;;;;5070146;28;20805;-66
2023/07/11 03:11:41;;;;;;;;;;;;;;;;;;5090094;28;19916;-65
2023/07/11 03:17:23;;;;;;;;;;;;;;;;;;5089523;28;19942;-63
2023/07/11 03:19:51;;;;;;;;;;;;;;;;;;5069426;28;19931;-65
2023/07/11 03:22:17;;;;;;;;;;;;;;;;;;5052600;28;21421;-66
2023/07/11 03:24:45;;;;;;;;;;;;;;;;;;5071503;28;19920;-65
2023/07/11 03:27:13;;;;;;;;;;;;;;;;;;5053487;28;19973;-65
2023/07/11 03:29:38;;;;;;;;;;;;;;;;;;5053625;28;19919;-65
2023/07/11 03:32:07;;;;;;;;;;;;;;;;;;5054487;28;19927;-65
2023/07/11 03:34:37;;;;;;;;;;;;;;;;;;5070982;28;20817;-66
2023/07/11 03:37:04;;;;;;;;;;;;;;;;;;5066985;28;19920;-65
2023/07/11 03:39:29;;;;;;;;;;;;;;;;;;5069041;28;19915;-66
2023/07/11 03:41:55;;;;;;;;;;;;;;;;;;5054096;28;20285;-65
2023/07/11 03:44:22;;;;;;;;;;;;;;;;;;5067888;28;20123;-65
2023/07/11 03:46:48;;;;;;;;;;;;;;;;;;5074183;28;19923;-66
2023/07/11 03:49:13;;;;;;;;;;;;;;;;;;5074318;28;19919;-64
2023/07/11 03:51:38;;;;;;;;;;;;;;;;;;5072823;28;19920;-65
2023/07/11 03:54:06;;;;;;;;;;;;;;;;;;5076765;28;19966;-66
2023/07/11 03:56:35;;;;;;;;;;;;;;;;;;5074534;28;19916;-65
2023/07/11 04:01:48;;;;;;;;;;;;;;;;;;5089791;28;20012;-67
2023/07/11 04:04:16;;;;;;;;;;;;;;;;;;5072399;28;20446;-64
2023/07/11 04:06:41;;;;;;;;;;;;;;;;;;5054031;28;21124;-66
2023/07/11 04:09:06;;;;;;;;;;;;;;;;;;5059806;28;19930;-66
2023/07/11 04:11:34;;;;;;;;;;;;;;;;;;5057342;28;19931;-66
2023/07/11 04:14:02;;;;;;;;;;;;;;;;;;5056700;28;19915;-67
2023/07/11 04:16:27;;;;;;;;;;;;;;;;;;5074738;28;20610;-66
2023/07/11 04:18:55;;;;;;;;;;;;;;;;;;5069381;28;20035;-64
2023/07/11 04:21:20;;;;;;;;;;;;;;;;;;5074934;28;20463;-65
2023/07/11 04:23:46;;;;;;;;;;;;;;;;;;5068194;28;19931;-64
2023/07/11 04:26:11;;;;;;;;;;;;;;;;;;5073706;28;19920;-66
2023/07/11 04:28:39;;;;;;;;;;;;;;;;;;5092872;28;19923;-65
2023/07/11 04:31:04;;;;;;;;;;;;;;;;;;5058092;28;19923;-67
2023/07/11 04:33:32;;;;;;;;;;;;;;;;;;5073675;28;19920;-65
2023/07/11 04:35:57;;;;;;;;;;;;;;;;;;5074488;28;19974;-65
2023/07/11 04:38:22;;;;;;;;;;;;;;;;;;5074404;28;19927;-65
2023/07/11 04:40:48;;;;;;;;;;;;;;;;;;5072825;28;19920;-65
2023/07/11 04:43:13;;;;;;;;;;;;;;;;;;5074417;28;20063;-66
2023/07/11 04:45:42;;;;;;;;;;;;;;;;;;5072945;28;20271;-66
2023/07/11 04:48:09;;;;;;;;;;;;;;;;;;5074438;28;19920;-65
2023/07/11 04:50:35;;;;;;;;;;;;;;;;;;5091698;28;19924;-65
2023/07/11 04:53:00;;;;;;;;;;;;;;;;;;5074019;28;20796;-66
2023/07/11 04:55:28;;;;;;;;;;;;;;;;;;5093170;28;20675;-65
2023/07/11 04:57:56;;;;;;;;;;;;;;;;;;5055991;28;20005;-66
2023/07/11 05:00:21;;;;;;;;;;;;;;;;;;5094138;28;19939;-65
2023/07/11 05:02:51;;;;;;;;;;;;;;;;;;5092227;28;19923;-64
2023/07/11 05:05:17;;;;;;;;;;;;;;;;;;5093234;28;19926;-67
2023/07/11 05:07:42;;;;;;;;;;;;;;;;;;5073298;28;19920;-66
2023/07/11 05:10:07;;;;;;;;;;;;;;;;;;5057700;28;19926;-66
2023/07/11 05:12:33;;;;;;;;;;;;;;;;;;5055742;28;21918;-64
2023/07/11 05:15:03;;;;;;;;;;;;;;;;;;5073842;28;19920;-67
2023/07/11 05:17:31;;;;;;;;;;;;;;;;;;5056213;28;19926;-67
2023/07/11 05:19:57;;;;;;;;;;;;;;;;;;5076591;28;21917;-65
2023/07/11 05:22:22;;;;;;;;;;;;;;;;;;5072908;28;20027;-65
2023/07/11 05:24:47;;;;;;;;;;;;;;;;;;5074202;28;19954;-65
2023/07/11 05:30:08;;;;;;;;;;;;;;;;;;5094180;28;19919;-65
2023/07/11 05:32:35;;;;;;;;;;;;;;;;;;5091874;28;19959;-65
2023/07/11 05:35:01;;;;;;;;;;;;;;;;;;5055811;28;20008;-65
2023/07/11 05:37:26;;;;;;;;;;;;;;;;;;5093072;28;20036;-66
2023/07/11 05:39:51;;;;;;;;;;;;;;;;;;5069015;28;20402;-66
2023/07/11 05:42:21;;;;;;;;;;;;;;;;;;5093115;28;19935;-66
2023/07/11 05:44:46;;;;;;;;;;;;;;;;;;5091133;28;20426;-66
2023/07/11 05:47:12;;;;;;;;;;;;;;;;;;5056503;28;19927;-66
2023/07/11 05:49:38;;;;;;;;;;;;;;;;;;5053416;28;19927;-68
2023/07/11 05:52:03;;;;;;;;;;;;;;;;;;5075169;28;20011;-66
2023/07/11 05:54:31;;;;;;;;;;;;;;;;;;5051591;28;19922;-64
2023/07/11 05:57:01;;;;;;;;;;;;;;;;;;5096672;27;19926;-65
2023/07/11 05:59:29;;;;;;;;;;;;;;;;;;5057132;28;19920;-65
2023/07/11 06:02:02;;;;;;;;;;;;;;;;;;5074522;28;20355;-67
2023/07/11 06:04:31;;;;;;;;;;;;;;;;;;5058014;27;19920;-66
2023/07/11 06:06:56;;;;;;;;;;;;;;;;;;5067755;28;20922;-66
2023/07/11 06:09:25;;;;;;;;;;;;;;;;;;5058274;27;19920;-66
2023/07/11 06:11:50;;;;;;;;;;;;;;;;;;5080014;28;19922;-65
2023/07/11 06:14:16;;;;;;;;;;;;;;;;;;5073990;28;19916;-66
2023/07/11 06:16:42;;;;;;;;;;;;;;;;;;5070978;27;20410;-67
2023/07/11 06:19:07;;;;;;;;;;;;;;;;;;5075420;27;20856;-67
2023/07/11 06:21:35;;;;;;;;;;;;;;;;;;5059718;27;20022;-65
2023/07/11 06:24:00;;;;;;;;;;;;;;;;;;5092644;27;20306;-67
2023/07/11 06:26:26;;;;;;;;;;;;;;;;;;5055211;28;19980;-67
2023/07/11 06:28:53;;;;;;;;;;;;;;;;;;5044150;28;21453;-67
2023/07/11 06:31:18;;;;;;;;;;;;;;;;;;5053492;28;20014;-65
2023/07/11 06:33:44;;;;;;;;;;;;;;;;;;5087512;28;19927;-68
2023/07/11 06:36:09;;;;;;;;;;;;;;;;;;5075159;28;19927;-67
2023/07/11 06:38:34;;;;;;;;;;;;;;;;;;5094854;27;20505;-66
2023/07/11 06:41:00;;;;;;;;;;;;;;;;;;5036596;28;20359;-68
2023/07/11 06:43:25;;;;;;;;;;;;;;;;;;5070443;28;19935;-67
2023/07/11 06:45:50;;;;;;;;;;;;;;;;;;5070229;28;19954;-67
2023/07/11 06:48:15;;;;;;;;;;;;;;;;;;5064514;28;20663;-68
2023/07/11 06:53:31;;;;;;;;;;;;;;;;;;5085622;27;19920;-69
2023/07/11 06:55:59;;;;;;;;;;;;;;;;;;5071201;28;19920;-67
2023/07/11 06:58:25;;;;;;;;;;;;;;;;;;5064476;28;19916;-68
2023/07/11 07:00:52;;;;;;;;;;;;;;;;;;5071065;28;20567;-68
2023/07/11 07:03:17;;;;;;;;;;;;;;;;;;5060725;28;19934;-68
2023/07/11 07:05:45;;;;;;;;;;;;;;;;;;5052310;28;20221;-68
2023/07/11 07:08:14;;;;;;;;;;;;;;;;;;5062770;28;19927;-67
2023/07/11 07:10:40;;;;;;;;;;;;;;;;;;5066565;28;19916;-68
2023/07/11 07:13:05;;;;;;;;;;;;;;;;;;5062156;28;19970;-68
2023/07/11 07:15:33;;;;;;;;;;;;;;;;;;5069747;28;19949;-68
2023/07/11 07:17:58;;;;;;;;;;;;;;;;;;5069333;28;19920;-66
2023/07/11 07:20:23;;;;;;;;;;;;;;;;;;5063082;28;20047;-68
2023/07/11 07:22:49;;;;;;;;;;;;;;;;;;5051143;28;20059;-69
2023/07/11 07:25:14;;;;;;;;;;;;;;;;;;5046944;28;19927;-70
2023/07/11 07:27:39;;;;;;;;;;;;;;;;;;5070045;28;19958;-68
2023/07/11 07:33:23;;;;;;;;;;;;;;;;;;5070246;28;19961;-66
2023/07/11 07:35:49;;;;;;;;;;;;;;;;;;5049873;28;19920;-71
2023/07/11 07:38:16;;;;;;;;;;;;;;;;;;5047364;28;20484;-67
2023/07/11 07:40:44;;;;;;;;;;;;;;;;;;5069643;28;19919;-67
2023/07/11 07:43:15;;;;;;;;;;;;;;;;;;5044867;28;19963;-69
2023/07/11 07:45:40;;;;;;;;;;;;;;;;;;5071102;28;19965;-67
2023/07/11 07:48:05;;;;;;;;;;;;;;;;;;5042592;28;19916;-66
2023/07/11 07:50:31;;;;;;;;;;;;;;;;;;5059362;28;19928;-68
2023/07/11 07:52:59;;;;;;;;;;;;;;;;;;5058357;28;19926;-67
2023/07/11 07:55:24;;;;;;;;;;;;;;;;;;5041906;28;19921;-66
2023/07/11 07:57:52;;;;;;;;;;;;;;;;;;5059048;28;19916;-68
2023/07/11 08:00:17;;;;;;;;;;;;;;;;;;5076734;28;19935;-68
2023/07/11 08:02:47;;;;;;;;;;;;;;;;;;5057040;28;19966;-67
2023/07/11 08:05:13;;;;;;;;;;;;;;;;;;5076010;28;19920;-66
2023/07/11 08:07:41;;;;;;;;;;;;;;;;;;5058950;28;19962;-68
2023/07/11 08:10:08;;;;;;;;;;;;;;;;;;5041081;28;20375;-66
2023/07/11 08:12:36;;;;;;;;;;;;;;;;;;5056658;28;19947;-67
2023/07/11 08:15:03;;;;;;;;;;;;;;;;;;5042806;28;20226;-68
2023/07/11 08:17:29;;;;;;;;;;;;;;;;;;5068658;28;19920;-67
2023/07/11 08:19:54;;;;;;;;;;;;;;;;;;5040923;28;20230;-66
2023/07/11 08:22:19;;;;;;;;;;;;;;;;;;5075804;28;20006;-68
2023/07/11 08:24:50;;;;;;;;;;;;;;;;;;5058476;28;19920;-67
2023/07/11 08:27:18;;;;;;;;;;;;;;;;;;5055253;28;20487;-67
2023/07/11 08:29:46;;;;;;;;;;;;;;;;;;5075358;28;20422;-66
2023/07/11 08:32:11;;;;;;;;;;;;;;;;;;5077148;28;19926;-67
2023/07/11 08:34:36;;;;;;;;;;;;;;;;;;5042579;28;19915;-66
2023/07/11 08:37:02;;;;;;;;;;;;;;;;;;5043504;28;19931;-67
2023/07/11 08:39:27;;;;;;;;;;;;;;;;;;5074248;28;19920;-68
2023/07/11 08:41:55;;;;;;;;;;;;;;;;;;5079099;28;19919;-67
2023/07/11 08:47:17;;;;;;;;;;;;;;;;;;5064422;28;19990;-67
2023/07/11 08:49:42;;;;;;;;;;;;;;;;;;5062344;28;19924;-71
2023/07/11 08:52:07;;;;;;;;;;;;;;;;;;5063715;28;19916;-68
2023/07/11 08:54:33;;;;;;;;;;;;;;;;;;5055198;28;19920;-68
2023/07/11 08:57:01;;;;;;;;;;;;;;;;;;5072374;28;19916;-70
2023/07/11 08:59:29;;;;;;;;;;;;;;;;;;5052123;28;19916;-69
2023/07/11 09:01:57;;;;;;;;;;;;;;;;;;5053952;28;20708;-71
2023/07/11 09:04:23;;;;;;;;;;;;;;;;;;5054028;28;20022;-68
2023/07/11 09:06:50;;;;;;;;;;;;;;;;;;5068358;28;19927;-70
2023/07/11 09:09:16;;;;;;;;;;;;;;;;;;5061458;28;20436;-68
2023/07/11 09:11:41;;;;;;;;;;;;;;;;;;5072040;28;19959;-68
2023/07/11 09:14:09;;;;;;;;;;;;;;;;;;5053066;28;19920;-72
2023/07/11 09:19:51;;;;;;;;;;;;;;;;;;5070635;28;19971;-69
2023/07/11 09:22:16;;;;;;;;;;;;;;;;;;5070810;28;20018;-68
2023/07/11 09:24:42;;;;;;;;;;;;;;;;;;5069009;28;19966;-69
2023/07/11 09:27:07;;;;;;;;;;;;;;;;;;5072412;28;20046;-70
2023/07/11 09:29:33;;;;;;;;;;;;;;;;;;5072991;28;19927;-70
2023/07/11 09:31:58;;;;;;;;;;;;;;;;;;5046477;28;19939;-72
2023/07/11 09:34:26;;;;;;;;;;;;;;;;;;5067932;28;20754;-74
2023/07/11 09:36:52;;;;;;;;;;;;;;;;;;5052771;28;19981;-70
2023/07/11 09:39:17;;;;;;;;;;;;;;;;;;5064985;28;20965;-68
2023/07/11 09:41:42;;;;;;;;;;;;;;;;;;5071301;28;19982;-69
2023/07/11 09:44:07;;;;;;;;;;;;;;;;;;5060493;28;19927;-69
2023/07/11 09:46:38;;;;;;;;;;;;;;;;;;5071337;28;20058;-68
2023/07/11 09:49:03;;;;;;;;;;;;;;;;;;5063190;28;19931;-68
2023/07/11 09:51:36;;;;;;;;;;;;;;;;;;5067834;28;19931;-69
2023/07/11 09:54:04;;;;;;;;;;;;;;;;;;5071889;28;19927;-68
2023/07/11 09:56:29;;;;;;;;;;;;;;;;;;5058857;28;19927;-68
2023/07/11 09:58:57;;;;;;;;;;;;;;;;;;5072071;28;19931;-70
2023/07/11 10:01:25;;;;;;;;;;;;;;;;;;5070966;28;19916;-72
2023/07/11 10:03:51;;;;;;;;;;;;;;;;;;5068518;28;19943;-72
2023/07/11 10:06:16;;;;;;;;;;;;;;;;;;5065139;28;21072;-73
2023/07/11 10:08:43;;;;;;;;;;;;;;;;;;5072536;28;20111;-69
2023/07/11 10:11:08;;;;;;;;;;;;;;;;;;5064374;28;19916;-70
2023/07/11 10:13:34;;;;;;;;;;;;;;;;;;5053310;28;19931;-73
2023/07/11 10:15:59;;;;;;;;;;;;;;;;;;5046271;28;19958;-69
2023/07/11 10:18:24;;;;;;;;;;;;;;;;;;5053259;28;19923;-67
2023/07/11 10:20:50;;;;;;;;;;;;;;;;;;5070371;28;19920;-70
2023/07/11 10:23:28;;;;;;;;;;;;;;;;;;5045387;28;19919;-68
2023/07/11 10:25:53;;;;;;;;;;;;;;;;;;5052901;28;19920;-72
2023/07/11 10:28:19;;;;;;;;;;;;;;;;;;5051853;28;19973;-69
2023/07/11 10:30:44;;;;;;;;;;;;;;;;;;5070079;28;19922;-71
2023/07/11 10:33:09;;;;;;;;;;;;;;;;;;5046776;28;19963;-74
2023/07/11 10:35:35;;;;;;;;;;;;;;;;;;5071452;28;20040;-71
2023/07/11 10:38:03;;;;;;;;;;;;;;;;;;5070969;28;20011;-70
2023/07/11 10:40:31;;;;;;;;;;;;;;;;;;5066899;28;21909;-71
2023/07/11 10:42:56;;;;;;;;;;;;;;;;;;5051751;28;19951;-72
2023/07/11 10:45:23;;;;;;;;;;;;;;;;;;5068740;28;20955;-68
2023/07/11 10:47:51;;;;;;;;;;;;;;;;;;5070380;28;19920;-70
2023/07/11 10:50:16;;;;;;;;;;;;;;;;;;5062621;28;19939;-68
2023/07/11 10:52:41;;;;;;;;;;;;;;;;;;5070527;28;20064;-67
2023/07/11 10:55:09;;;;;;;;;;;;;;;;;;5079025;28;19931;-68
2023/07/11 10:57:35;;;;;;;;;;;;;;;;;;5069318;28;20037;-69
2023/07/11 11:00:00;;;;;;;;;;;;;;;;;;5061734;28;19923;-71
2023/07/11 11:02:26;;;;;;;;;;;;;;;;;;5065372;28;19927;-70
2023/07/11 11:04:51;;;;;;;;;;;;;;;;;;5086599;28;19947;-72
2023/07/11 11:07:17;;;;;;;;;;;;;;;;;;5059603;28;19916;-73
2023/07/11 11:09:42;;;;;;;;;;;;;;;;;;5053206;28;19927;-74
2023/07/11 11:12:08;;;;;;;;;;;;;;;;;;5067756;28;19962;-71
2023/07/11 11:14:36;;;;;;;;;;;;;;;;;;5064954;28;19927;-70
2023/07/11 11:17:04;;;;;;;;;;;;;;;;;;5049075;28;20700;-69
2023/07/11 11:19:30;;;;;;;;;;;;;;;;;;5048998;28;20084;-73
2023/07/11 11:21:55;;;;;;;;;;;;;;;;;;5044860;28;19916;-72
2023/07/11 11:27:08;;;;;;;;;;;;;;;;;;5070218;28;20523;-70
2023/07/11 11:29:34;;;;;;;;;;;;;;;;;;5051911;28;19920;-70
2023/07/11 11:32:01;;;;;;;;;;;;;;;;;;5045444;28;20291;-70
2023/07/11 11:34:27;;;;;;;;;;;;;;;;;;5069270;28;19920;-71
2023/07/11 11:36:52;;;;;;;;;;;;;;;;;;5069159;28;19920;-66
2023/07/11 11:39:18;;;;;;;;;;;;;;;;;;5063800;28;19920;-71
2023/07/11 11:41:43;;;;;;;;;;;;;;;;;;5052521;28;19920;-71
2023/07/11 11:44:09;;;;;;;;;;;;;;;;;;5062304;28;20670;-74
2023/07/11 11:46:35;;;;;;;;;;;;;;;;;;5084561;28;19920;-71
2023/07/11 11:49:03;;;;;;;;;;;;;;;;;;5069505;28;20419;-68
2023/07/11 11:51:31;;;;;;;;;;;;;;;;;;5065269;28;19928;-70
2023/07/11 11:53:56;;;;;;;;;;;;;;;;;;5068514;28;19928;-68
2023/07/11 11:56:24;;;;;;;;;;;;;;;;;;5085680;28;19949;-72
2023/07/11 11:58:50;;;;;;;;;;;;;;;;;;5069641;28;19920;-74
2023/07/11 12:01:15;;;;;;;;;;;;;;;;;;5072108;28;19920;-69
2023/07/11 12:03:41;;;;;;;;;;;;;;;;;;5070146;28;19997;-71
2023/07/11 12:06:09;;;;;;;;;;;;;;;;;;5072543;28;20026;-71
2023/07/11 12:08:34;;;;;;;;;;;;;;;;;;5070372;28;19920;-75
2023/07/11 12:11:00;;;;;;;;;;;;;;;;;;5074106;28;19920;-68
2023/07/11 12:13:25;;;;;;;;;;;;;;;;;;5073896;28;20006;-69
2023/07/11 12:15:50;;;;;;;;;;;;;;;;;;5093688;28;19972;-74
2023/07/11 12:18:15;;;;;;;;;;;;;;;;;;5074721;28;20471;-71
2023/07/11 12:20:41;;;;;;;;;;;;;;;;;;5073451;28;19920;-69
2023/07/11 12:23:06;;;;;;;;;;;;;;;;;;5094019;28;20387;-72
2023/07/11 12:25:32;;;;;;;;;;;;;;;;;;5093669;28;19924;-67
2023/07/11 12:27:58;;;;;;;;;;;;;;;;;;5073484;28;20294;-72
2023/07/11 12:30:26;;;;;;;;;;;;;;;;;;5094079;28;19946;-64
2023/07/11 12:32:54;;;;;;;;;;;;;;;;;;5074026;28;20524;-72
2023/07/11 12:35:20;;;;;;;;;;;;;;;;;;5057555;28;19916;-67
2023/07/11 12:37:46;;;;;;;;;;;;;;;;;;5074315;28;19920;-73
2023/07/11 12:40:11;;;;;;;;;;;;;;;;;;5093784;27;20031;-69
2023/07/11 12:45:57;;;;;;;;;;;;;;;;;;5093519;28;20059;-69
2023/07/11 12:48:37;;;;;;;;;;;;;;;;;;5091951;28;20027;-68
2023/07/11 12:51:02;;;;;;;;;;;;;;;;;;5066240;28;19931;-73
2023/07/11 12:53:30;;;;;;;;;;;;;;;;;;5053706;28;19923;-71
2023/07/11 12:55:56;;;;;;;;;;;;;;;;;;5067376;28;19920;-70
2023/07/11 12:58:21;;;;;;;;;;;;;;;;;;5073475;28;19927;-70
2023/07/11 13:00:47;;;;;;;;;;;;;;;;;;5052880;28;19920;-74
2023/07/11 13:03:12;;;;;;;;;;;;;;;;;;5056281;28;20014;-72
2023/07/11 13:05:38;;;;;;;;;;;;;;;;;;5072695;28;20004;-75
2023/07/11 13:08:06;;;;;;;;;;;;;;;;;;5060331;28;19916;-69
2023/07/11 13:10:31;;;;;;;;;;;;;;;;;;5072525;28;19931;-70
2023/07/11 13:12:57;;;;;;;;;;;;;;;;;;5063096;28;19988;-70
2023/07/11 13:15:22;;;;;;;;;;;;;;;;;;5071314;28;19920;-69
2023/07/11 13:17:47;;;;;;;;;;;;;;;;;;5071119;28;20529;-71
2023/07/11 13:20:13;;;;;;;;;;;;;;;;;;5034328;28;19978;-70
2023/07/11 13:22:38;;;;;;;;;;;;;;;;;;5068133;28;19920;-68
2023/07/11 13:25:03;;;;;;;;;;;;;;;;;;5075155;28;19916;-70
2023/07/11 13:27:29;;;;;;;;;;;;;;;;;;5072135;28;20856;-73
2023/07/11 13:29:57;;;;;;;;;;;;;;;;;;5046210;28;19926;-75
2023/07/11 13:32:22;;;;;;;;;;;;;;;;;;5067327;28;19924;-74
2023/07/11 13:34:47;;;;;;;;;;;;;;;;;;5070240;28;19949;-72
2023/07/11 13:40:29;;;;;;;;;;;;;;;;;;5069956;28;20048;-74
2023/07/11 13:42:55;;;;;;;;;;;;;;;;;;5073220;28;19924;-73
2023/07/11 13:45:21;;;;;;;;;;;;;;;;;;5066981;28;19924;-74
2023/07/11 13:47:47;;;;;;;;;;;;;;;;;;5053092;28;19917;-71
2023/07/11 13:50:15;;;;;;;;;;;;;;;;;;5076957;28;19927;-73
2023/07/11 13:52:40;;;;;;;;;;;;;;;;;;5071347;28;19923;-72
2023/07/11 13:55:05;;;;;;;;;;;;;;;;;;5057274;28;20227;-72
2023/07/11 13:57:31;;;;;;;;;;;;;;;;;;5070519;28;20011;-71
2023/07/11 13:59:56;;;;;;;;;;;;;;;;;;5085025;28;20014;-73
2023/07/11 14:02:24;;;;;;;;;;;;;;;;;;5084903;28;20362;-75
2023/07/11 14:04:53;;;;;;;;;;;;;;;;;;5056718;28;19920;-78
2023/07/11 14:07:21;;;;;;;;;;;;;;;;;;5072475;28;19919;-71
2023/07/11 14:09:49;;;;;;;;;;;;;;;;;;5071671;28;19931;-76
2023/07/11 14:12:15;;;;;;;;;;;;;;;;;;5074839;28;19924;-71
2023/07/11 14:14:40;;;;;;;;;;;;;;;;;;5075704;28;19927;-70
2023/07/11 14:17:06;;;;;;;;;;;;;;;;;;5079473;28;20895;-75
2023/07/11 14:19:34;;;;;;;;;;;;;;;;;;5092535;28;20350;-76
2023/07/11 14:21:59;;;;;;;;;;;;;;;;;;5056464;28;19947;-75
2023/07/11 14:24:25;;;;;;;;;;;;;;;;;;5057124;28;19938;-74
2023/07/11 14:26:50;;;;;;;;;;;;;;;;;;5073994;28;20030;-81
2023/07/11 14:29:15;;;;;;;;;;;;;;;;;;5054965;28;19926;-75
2023/07/11 14:31:41;;;;;;;;;;;;;;;;;;5072907;28;19923;-77
2023/07/11 14:37:23;;;;;;;;;;;;;;;;;;5091736;28;20451;-70
2023/07/11 14:39:48;;;;;;;;;;;;;;;;;;5091801;28;19928;-75
2023/07/11 14:42:16;;;;;;;;;;;;;;;;;;5092719;28;20455;-78
2023/07/11 14:44:41;;;;;;;;;;;;;;;;;;5088701;28;20018;-71
2023/07/11 14:47:09;;;;;;;;;;;;;;;;;;5092155;28;19998;-77
2023/07/11 14:49:35;;;;;;;;;;;;;;;;;;5091534;28;19933;-75
2023/07/11 14:52:03;;;;;;;;;;;;;;;;;;5055306;28;19919;-77
2023/07/11 14:54:29;;;;;;;;;;;;;;;;;;5055768;28;19922;-76
2023/07/11 14:56:57;;;;;;;;;;;;;;;;;;5055773;28;20558;-71
2023/07/11 14:59:23;;;;;;;;;;;;;;;;;;5056298;28;19915;-76
2023/07/11 15:01:48;;;;;;;;;;;;;;;;;;5073443;28;20382;-77
2023/07/11 15:04:14;;;;;;;;;;;;;;;;;;5072310;28;19915;-77
2023/07/11 15:10:04;;;;;;;;;;;;;;;;;;5092475;28;20028;-72
2023/07/11 15:12:30;;;;;;;;;;;;;;;;;;5070503;28;19923;-71
2023/07/11 15:14:55;;;;;;;;;;;;;;;;;;5091794;28;19949;-70
2023/07/11 15:17:21;;;;;;;;;;;;;;;;;;5091180;28;19923;-79
2023/07/11 15:19:46;;;;;;;;;;;;;;;;;;5073561;28;19919;-80
2023/07/11 15:22:11;;;;;;;;;;;;;;;;;;5069854;28;19915;-72
2023/07/11 15:24:37;;;;;;;;;;;;;;;;;;5073874;28;20018;-70
2023/07/11 15:27:02;;;;;;;;;;;;;;;;;;5088438;28;21028;-76
2023/07/11 15:29:27;;;;;;;;;;;;;;;;;;5071172;28;19923;-77
2023/07/11 15:31:53;;;;;;;;;;;;;;;;;;5090405;28;19977;-74
2023/07/11 15:34:18;;;;;;;;;;;;;;;;;;5057563;28;20567;-79
2023/07/11 15:36:43;;;;;;;;;;;;;;;;;;5071473;28;19927;-79
2023/07/11 15:39:09;;;;;;;;;;;;;;;;;;5072534;28;19923;-80
2023/07/11 15:41:34;;;;;;;;;;;;;;;;;;5069576;28;19919;-75
2023/07/11 15:44:00;;;;;;;;;;;;;;;;;;5091886;28;19920;-73
2023/07/11 15:46:27;;;;;;;;;;;;;;;;;;5055369;28;19927;-77
2023/07/11 15:48:56;;;;;;;;;;;;;;;;;;5070775;28;20388;-78
2023/07/11 15:51:24;;;;;;;;;;;;;;;;;;5072355;28;19923;-70
2023/07/11 15:53:50;;;;;;;;;;;;;;;;;;5070827;28;19957;-77
2023/07/11 15:56:15;;;;;;;;;;;;;;;;;;5072247;28;20402;-77
2023/07/11 15:58:40;;;;;;;;;;;;;;;;;;5088534;28;20879;-75
2023/07/11 16:01:06;;;;;;;;;;;;;;;;;;5079124;28;19969;-77
2023/07/11 16:03:31;;;;;;;;;;;;;;;;;;5064463;28;19927;-74
2023/07/11 16:05:56;;;;;;;;;;;;;;;;;;5069329;28;19919;-75
2023/07/11 16:08:25;;;;;;;;;;;;;;;;;;5056067;28;19938;-75
2023/07/11 16:10:50;;;;;;;;;;;;;;;;;;5071436;28;19955;-76
2023/07/11 16:13:15;;;;;;;;;;;;;;;;;;5072251;28;19920;-79
2023/07/11 16:15:41;;;;;;;;;;;;;;;;;;5071647;28;21651;-75
2023/07/11 16:18:06;;;;;;;;;;;;;;;;;;5054435;28;19935;-75
2023/07/11 16:20:31;;;;;;;;;;;;;;;;;;5090330;28;19957;-72
2023/07/11 16:22:56;;;;;;;;;;;;;;;;;;5090123;28;19920;-74
2023/07/11 16:25:22;;;;;;;;;;;;;;;;;;5092188;28;19916;-74
2023/07/11 16:27:47;;;;;;;;;;;;;;;;;;5052124;28;20002;-75
2023/07/11 16:30:16;;;;;;;;;;;;;;;;;;5071939;28;19926;-72
2023/07/11 16:32:41;;;;;;;;;;;;;;;;;;5051525;28;19920;-74
2023/07/11 16:35:09;;;;;;;;;;;;;;;;;;5066714;28;20350;-77
2023/07/11 16:37:34;;;;;;;;;;;;;;;;;;5068297;28;19920;-73
2023/07/11 16:40:00;;;;;;;;;;;;;;;;;;5072850;28;19922;-73
2023/07/11 16:42:28;;;;;;;;;;;;;;;;;;5072066;28;20037;-73
2023/07/11 16:48:12;;;;;;;;;;;;;;;;;;5078355;28;20300;-73
2023/07/11 16:50:37;;;;;;;;;;;;;;;;;;5069805;28;20022;-77
2023/07/11 16:53:04;;;;;;;;;;;;;;;;;;5084670;28;19923;-74
2023/07/11 16:55:32;;;;;;;;;;;;;;;;;;5092463;28;19920;-77
2023/07/11 16:58:00;;;;;;;;;;;;;;;;;;5068718;28;20000;-73
2023/07/11 17:00:26;;;;;;;;;;;;;;;;;;5055374;28;19998;-72
2023/07/11 17:02:51;;;;;;;;;;;;;;;;;;5093540;28;19941;-74
2023/07/11 17:05:16;;;;;;;;;;;;;;;;;;5074190;28;19967;-77
2023/07/11 17:07:42;;;;;;;;;;;;;;;;;;5073824;28;19919;-73
2023/07/11 17:10:07;;;;;;;;;;;;;;;;;;5073072;28;19919;-75
2023/07/11 17:12:32;;;;;;;;;;;;;;;;;;5092413;28;19959;-71
2023/07/11 17:15:01;;;;;;;;;;;;;;;;;;5073504;28;19922;-72
2023/07/11 17:17:29;;;;;;;;;;;;;;;;;;5073543;28;20674;-70
2023/07/11 17:19:55;;;;;;;;;;;;;;;;;;5093039;28;19915;-74